createdAt,value
2022-11-14T00:00:34.839Z,4.57
2022-11-14T00:03:03.984Z,4.70
2022-11-14T00:05:31.356Z,6.87
2022-11-14T00:07:58.717Z,5.13
2022-11-14T00:10:26.257Z,6.93
2022-11-14T00:17:39.291Z,8.20
2022-11-14T00:20:09.571Z,6.17
2022-11-14T00:22:37.179Z,17.40
2022-11-14T00:25:05.745Z,6.87
2022-11-14T00:27:33.286Z,7.00
2022-11-14T00:30:01.205Z,6.43
2022-11-14T00:32:28.488Z,7.90
2022-11-14T00:38:06.307Z,7.07
2022-11-14T00:40:33.917Z,6.87
2022-11-14T00:43:01.015Z,9.57
2022-11-14T00:45:28.266Z,6.47
2022-11-14T00:47:55.455Z,7.00
2022-11-14T00:50:22.856Z,6.00
2022-11-14T00:52:50.306Z,6.80
2022-11-14T00:59:50.517Z,12.30
2022-11-14T01:02:17.895Z,9.63
2022-11-14T01:04:45.115Z,6.30
2022-11-14T01:07:12.304Z,6.20
2022-11-14T01:09:40.044Z,7.13
2022-11-14T01:12:07.433Z,9.27
2022-11-14T01:14:34.741Z,7.27
2022-11-14T01:21:31.677Z,11.77
2022-11-14T01:23:59.695Z,12.10
2022-11-14T01:26:35.865Z,10.13
2022-11-14T01:29:06.127Z,9.50
2022-11-14T01:31:50.594Z,10.10
2022-11-14T01:34:33.046Z,10.47
2022-11-14T01:37:12.027Z,9.40
2022-11-14T01:39:41.117Z,8.63
2022-11-14T01:42:14.568Z,8.60
2022-11-14T01:47:31.016Z,10.03
2022-11-14T01:50:01.125Z,11.63
2022-11-14T01:52:32.425Z,9.97
2022-11-14T01:55:03.716Z,11.13
2022-11-14T01:57:36.298Z,8.70
2022-11-14T02:00:11.668Z,11.80
2022-11-14T02:02:40.377Z,10.07
2022-11-14T02:08:27.556Z,10.27
2022-11-14T02:10:55.774Z,10.50
2022-11-14T02:13:22.967Z,10.67
2022-11-14T02:15:52.886Z,10.57
2022-11-14T02:18:20.527Z,10.83
2022-11-14T02:20:49.395Z,10.20
2022-11-14T02:23:27.096Z,12.87
2022-11-14T02:25:54.996Z,10.50
2022-11-14T02:31:07.936Z,9.57
2022-11-14T02:33:35.574Z,11.17
2022-11-14T02:36:02.917Z,14.83
2022-11-14T02:38:30.768Z,12.13
2022-11-14T02:40:59.820Z,11.33
2022-11-14T02:43:27.496Z,10.93
2022-11-14T02:45:54.777Z,11.80
2022-11-14T02:48:23.194Z,13.73
2022-11-14T03:08:53.254Z,15.00
2022-11-14T03:11:20.817Z,11.03
2022-11-14T03:13:58.465Z,12.87
2022-11-14T03:16:37.384Z,11.60
2022-11-14T03:19:10.894Z,14.67
2022-11-14T03:22:00.527Z,11.27
2022-11-14T03:25:16.412Z,12.63
2022-11-14T03:27:44.288Z,16.87
2022-11-14T03:30:18.137Z,11.67
2022-11-14T03:35:49.215Z,13.40
2022-11-14T03:38:16.507Z,18.13
2022-11-14T03:40:44.226Z,14.07
2022-11-14T03:43:11.525Z,13.47
2022-11-14T03:45:39.027Z,17.70
2022-11-14T03:48:07.027Z,15.53
2022-11-14T03:50:34.968Z,14.33
2022-11-14T03:58:10.105Z,14.70
2022-11-14T04:00:40.804Z,16.57
2022-11-14T04:03:11.448Z,13.33
2022-11-14T04:05:38.690Z,13.83
2022-11-14T04:08:22.299Z,16.93
2022-11-14T04:10:52.580Z,16.17
2022-11-14T04:13:36.088Z,15.77
2022-11-14T04:16:11.215Z,15.20
2022-11-14T04:18:46.536Z,17.03
2022-11-14T04:24:12.035Z,18.83
2022-11-14T04:26:39.343Z,13.67
2022-11-14T04:29:06.657Z,14.77
2022-11-14T04:31:35.277Z,16.57
2022-11-14T04:34:08.726Z,16.60
2022-11-14T04:36:38.639Z,21.23
2022-11-14T04:39:10.965Z,16.50
2022-11-14T04:45:53.979Z,16.43
2022-11-14T04:48:22.169Z,18.80
2022-11-14T04:50:52.408Z,21.50
2022-11-14T04:53:28.732Z,21.33
2022-11-14T04:55:55.888Z,20.30
2022-11-14T04:58:30.963Z,19.13
2022-11-14T05:01:02.673Z,20.33
2022-11-14T05:08:22.875Z,20.70
2022-11-14T05:10:52.309Z,21.07
2022-11-14T05:13:19.996Z,21.00
2022-11-14T05:15:52.735Z,22.57
2022-11-14T05:18:20.127Z,19.73
2022-11-14T05:20:49.700Z,22.30
2022-11-14T05:23:24.315Z,23.13
2022-11-14T05:31:03.969Z,20.07
2022-11-14T05:33:31.529Z,20.50
2022-11-14T05:36:03.245Z,22.57
2022-11-14T05:38:30.920Z,20.93
2022-11-14T05:40:58.568Z,22.20
2022-11-14T05:43:26.805Z,23.70
2022-11-14T05:45:54.359Z,24.47
2022-11-14T05:48:23.427Z,21.27
2022-11-14T05:56:41.910Z,24.63
2022-11-14T05:59:09.340Z,24.70
2022-11-14T06:01:36.693Z,20.33
2022-11-14T06:04:06.840Z,23.40
2022-11-14T06:06:34.917Z,27.07
2022-11-14T06:09:02.598Z,23.67
2022-11-14T06:11:30.089Z,24.23
2022-11-14T06:22:10.489Z,27.37
2022-11-14T06:24:38.408Z,26.53
2022-11-14T06:27:08.006Z,23.67
2022-11-14T06:29:35.764Z,23.93
2022-11-14T06:32:03.354Z,27.67
2022-11-14T06:34:30.907Z,29.47
2022-11-14T06:36:58.278Z,27.70
2022-11-14T06:39:27.368Z,30.67
2022-11-14T06:44:53.560Z,29.93
2022-11-14T06:47:21.018Z,32.50
2022-11-14T06:49:48.968Z,31.93
2022-11-14T06:52:16.220Z,32.60
2022-11-14T06:54:45.018Z,34.27
2022-11-14T06:57:12.475Z,31.93
2022-11-14T06:59:39.589Z,33.50
2022-11-14T07:04:49.309Z,36.80
2022-11-14T07:07:16.650Z,37.17
2022-11-14T07:09:45.546Z,47.20
2022-11-14T07:12:13.839Z,36.37
2022-11-14T07:14:43.146Z,37.50
2022-11-14T07:17:10.606Z,33.50
2022-11-14T07:19:42.747Z,48.03
2022-11-14T07:26:46.408Z,47.13
2022-11-14T07:29:13.638Z,42.17
2022-11-14T07:31:41.310Z,47.77
2022-11-14T07:34:10.667Z,41.77
2022-11-14T07:36:38.055Z,39.80
2022-11-14T07:39:05.551Z,49.17
2022-11-14T07:46:54.366Z,45.43
2022-11-14T07:49:22.646Z,47.63
2022-11-14T07:51:49.912Z,57.40
2022-11-14T07:54:17.598Z,47.97
2022-11-14T07:56:45.027Z,49.77
2022-11-14T07:59:12.477Z,48.30
2022-11-14T08:01:39.866Z,53.00
2022-11-14T08:04:08.551Z,51.73
2022-11-14T08:11:52.835Z,47.90
2022-11-14T08:14:22.388Z,48.17
2022-11-14T08:16:51.645Z,43.17
2022-11-14T08:19:18.987Z,52.27
2022-11-14T08:21:46.772Z,43.37
2022-11-14T08:24:16.988Z,49.07
2022-11-14T08:26:46.568Z,45.50
2022-11-14T08:36:38.586Z,59.50
2022-11-14T08:39:06.735Z,47.27
2022-11-14T08:41:34.486Z,52.40
2022-11-14T08:44:03.448Z,48.67
2022-11-14T08:46:31.148Z,47.57
2022-11-14T08:48:58.479Z,45.40
2022-11-14T08:51:25.760Z,44.13
2022-11-14T08:53:54.091Z,52.13
2022-11-14T09:01:57.979Z,103.00
2022-11-14T09:04:25.471Z,108.97
2022-11-14T09:06:52.820Z,104.37
2022-11-14T09:09:20.146Z,79.50
2022-11-14T09:11:47.417Z,155.03
2022-11-14T09:14:15.295Z,183.83
2022-11-14T09:16:45.817Z,125.30
2022-11-14T09:22:41.949Z,159.20
2022-11-14T09:25:09.567Z,83.20
2022-11-14T09:27:37.617Z,305.23
2022-11-14T09:30:06.651Z,80.80
2022-11-14T09:32:34.007Z,86.40
2022-11-14T09:35:01.956Z,68.40
2022-11-14T09:37:29.908Z,147.33
2022-11-14T09:45:06.739Z,60.37
2022-11-14T09:47:43.038Z,94.70
2022-11-14T09:50:24.483Z,68.30
2022-11-14T09:52:56.307Z,283.27
2022-11-14T09:55:37.218Z,197.87
2022-11-14T09:58:30.913Z,193.33
2022-11-14T10:01:14.002Z,61.23
2022-11-14T10:06:40.278Z,170.83
2022-11-14T10:09:33.736Z,243.67
2022-11-14T10:12:12.047Z,236.97
2022-11-14T10:14:54.465Z,285.23
2022-11-14T10:17:46.285Z,108.43
2022-11-14T10:20:21.087Z,165.40
2022-11-14T10:23:01.820Z,193.23
2022-11-14T10:30:49.758Z,199.80
2022-11-14T10:33:27.948Z,62.27
2022-11-14T10:36:02.946Z,108.30
2022-11-14T10:38:35.459Z,96.70
2022-11-14T10:41:06.946Z,85.67
2022-11-14T10:43:39.718Z,85.60
2022-11-14T10:46:15.396Z,71.03
2022-11-14T10:48:50.197Z,60.20
2022-11-14T10:56:19.709Z,49.23
2022-11-14T10:58:50.593Z,47.97
2022-11-14T11:01:39.520Z,49.07
2022-11-14T11:04:15.317Z,40.03
2022-11-14T11:06:43.583Z,39.07
2022-11-14T11:09:34.873Z,43.23
2022-11-14T11:12:06.373Z,41.97
2022-11-14T11:14:35.164Z,48.23
2022-11-14T11:22:36.629Z,41.67
2022-11-14T11:25:25.146Z,42.47
2022-11-14T11:28:11.545Z,40.27
2022-11-14T11:30:41.019Z,42.53
2022-11-14T11:33:27.668Z,37.43
2022-11-14T11:36:03.459Z,38.73
2022-11-14T11:44:03.217Z,31.80
2022-11-14T11:46:36.907Z,32.30
2022-11-14T11:49:14.118Z,39.83
2022-11-14T11:51:44.378Z,30.73
2022-11-14T11:54:17.118Z,32.03
2022-11-14T11:56:48.186Z,33.43
2022-11-14T11:59:29.699Z,33.53
2022-11-14T12:02:01.262Z,35.97
2022-11-14T12:10:09.404Z,32.47
2022-11-14T12:12:42.607Z,35.20
2022-11-14T12:15:26.396Z,30.57
2022-11-14T12:18:36.135Z,27.77
2022-11-14T12:21:19.266Z,27.23
2022-11-14T12:24:15.053Z,26.67
2022-11-14T12:31:31.181Z,29.70
2022-11-14T12:34:07.136Z,26.77
2022-11-14T12:36:38.147Z,28.07
2022-11-14T12:42:35.306Z,25.20
2022-11-14T12:45:10.876Z,26.33
2022-11-14T12:48:15.940Z,29.17
2022-11-14T12:53:46.658Z,20.33
2022-11-14T12:56:47.697Z,23.17
2022-11-14T12:59:35.576Z,25.83
2022-11-14T13:02:36.586Z,21.37
2022-11-14T13:05:36.646Z,20.97
2022-11-14T13:08:24.078Z,21.07
2022-11-14T13:15:48.828Z,19.20
2022-11-14T13:18:40.386Z,20.90
2022-11-14T13:21:40.963Z,20.93
2022-11-14T13:24:13.658Z,21.93
2022-11-14T13:26:53.432Z,21.67
2022-11-14T13:29:49.209Z,24.43
2022-11-14T13:41:07.959Z,21.13
2022-11-14T13:43:51.537Z,16.60
2022-11-14T13:46:29.614Z,19.67
2022-11-14T13:49:16.091Z,18.27
2022-11-14T13:51:45.946Z,17.80
2022-11-14T13:54:17.572Z,17.57
2022-11-14T13:56:59.017Z,16.63
2022-11-14T13:59:46.287Z,19.00
2022-11-14T14:11:50.868Z,21.13
2022-11-14T14:14:49.147Z,17.97
2022-11-14T14:17:34.567Z,14.83
2022-11-14T14:20:49.286Z,17.17
2022-11-14T14:23:32.500Z,17.70
2022-11-14T14:26:30.529Z,15.27
2022-11-14T14:29:41.746Z,14.63
2022-11-14T14:37:20.499Z,13.80
2022-11-14T14:40:03.516Z,13.47
2022-11-14T14:42:37.669Z,13.33
2022-11-14T14:45:16.969Z,15.10
2022-11-14T14:47:48.188Z,11.23
2022-11-14T14:50:20.637Z,12.13
2022-11-14T14:52:57.081Z,10.27
2022-11-14T14:55:27.316Z,11.37
2022-11-14T15:03:00.664Z,13.40
2022-11-14T15:05:31.799Z,12.27
2022-11-14T15:08:03.408Z,10.37
2022-11-14T15:10:32.260Z,14.47
2022-11-14T15:13:00.109Z,11.40
2022-11-14T15:15:28.470Z,11.53
2022-11-14T15:18:00.192Z,13.03
2022-11-14T15:25:36.349Z,15.30
2022-11-14T15:28:04.089Z,12.97
2022-11-14T15:30:34.258Z,12.27
2022-11-14T15:33:05.638Z,14.40
2022-11-14T15:35:40.710Z,14.60
2022-11-14T15:44:37.638Z,12.77
2022-11-14T15:47:07.960Z,12.80
2022-11-14T15:49:35.736Z,16.53
2022-11-14T15:52:05.134Z,12.00
2022-11-14T15:54:38.016Z,15.67
2022-11-14T15:57:16.957Z,13.80
2022-11-14T15:59:45.820Z,14.00
2022-11-14T16:02:20.197Z,12.73
2022-11-14T16:10:00.732Z,10.77
2022-11-14T16:12:28.650Z,14.10
2022-11-14T16:14:56.831Z,18.20
2022-11-14T16:17:24.769Z,11.50
2022-11-14T16:19:52.316Z,13.63
2022-11-14T16:22:19.668Z,11.07
2022-11-14T16:24:52.149Z,14.63
2022-11-14T16:32:20.047Z,12.33
2022-11-14T16:34:50.938Z,12.37
2022-11-14T16:37:18.364Z,11.23
2022-11-14T16:39:50.460Z,12.90
2022-11-14T16:42:18.730Z,13.33
2022-11-14T16:44:50.538Z,13.17
2022-11-14T16:47:20.957Z,15.67
2022-11-14T16:49:51.569Z,13.53
2022-11-14T16:57:28.791Z,11.70
2022-11-14T17:00:01.277Z,13.13
2022-11-14T17:02:32.526Z,14.87
2022-11-14T17:05:03.626Z,14.97
2022-11-14T17:07:37.644Z,14.30
2022-11-14T17:10:08.099Z,14.13
2022-11-14T17:12:39.460Z,14.70
2022-11-14T17:15:07.955Z,15.33
2022-11-14T17:22:41.085Z,15.87
2022-11-14T17:25:09.070Z,17.53
2022-11-14T17:27:36.560Z,18.10
2022-11-14T17:30:03.938Z,19.40
2022-11-14T17:32:30.968Z,15.87
2022-11-14T17:34:58.539Z,18.20
2022-11-14T17:37:25.637Z,13.93
2022-11-14T17:44:54.219Z,18.37
2022-11-14T17:47:21.679Z,20.53
2022-11-14T17:49:49.237Z,16.13
2022-11-14T17:52:16.915Z,16.33
2022-11-14T17:54:44.837Z,17.73
2022-11-14T17:57:13.271Z,17.67
2022-11-14T17:59:41.108Z,20.00
2022-11-14T18:02:17.557Z,18.47
2022-11-14T18:09:51.930Z,19.40
2022-11-14T18:12:19.660Z,18.27
2022-11-14T18:14:49.508Z,18.50
2022-11-14T18:17:17.071Z,17.07
2022-11-14T18:19:44.897Z,16.67
2022-11-14T18:22:13.271Z,19.87
2022-11-14T18:24:46.155Z,24.13
2022-11-14T18:35:08.516Z,23.60
2022-11-14T18:37:36.227Z,18.43
2022-11-14T18:40:04.739Z,22.27
2022-11-14T18:42:32.189Z,19.90
2022-11-14T18:44:59.708Z,19.50
2022-11-14T18:47:28.901Z,22.10
2022-11-14T18:49:56.263Z,17.20
2022-11-14T18:52:25.840Z,22.33
2022-11-14T18:57:35.694Z,23.70
2022-11-14T19:00:05.820Z,19.67
2022-11-14T19:02:35.060Z,21.23
2022-11-14T19:05:03.338Z,21.03
2022-11-14T19:07:31.067Z,22.97
2022-11-14T19:09:58.481Z,17.10
2022-11-14T19:12:25.836Z,24.63
2022-11-14T19:14:57.599Z,28.20
2022-11-14T19:22:29.727Z,23.60
2022-11-14T19:24:58.649Z,22.30
2022-11-14T19:27:33.227Z,27.77
2022-11-14T19:30:00.678Z,25.23
2022-11-14T19:32:28.668Z,23.03
2022-11-14T19:34:56.517Z,24.23
2022-11-14T19:37:23.917Z,20.90
2022-11-14T19:42:31.580Z,20.63
2022-11-14T19:45:00.437Z,14.97
2022-11-14T19:47:28.873Z,19.43
2022-11-14T19:49:56.869Z,22.47
2022-11-14T19:52:24.500Z,18.43
2022-11-14T19:54:52.338Z,16.00
2022-11-14T19:57:20.690Z,18.07
2022-11-14T19:59:49.619Z,22.00
2022-11-14T20:07:23.273Z,21.23
2022-11-14T20:09:50.737Z,22.33
2022-11-14T20:12:18.747Z,18.47
2022-11-14T20:14:47.026Z,18.40
2022-11-14T20:17:15.329Z,19.73
2022-11-14T20:19:43.326Z,17.30
2022-11-14T20:22:11.692Z,16.10
2022-11-14T20:24:43.606Z,20.33
2022-11-14T20:32:16.087Z,27.73
2022-11-14T20:34:43.467Z,15.27
2022-11-14T20:37:12.201Z,31.10
2022-11-14T20:39:39.756Z,20.97
2022-11-14T20:42:07.469Z,17.73
2022-11-14T20:44:37.866Z,17.90
2022-11-14T20:47:09.835Z,20.77
2022-11-14T20:54:43.689Z,16.30
2022-11-14T20:57:12.307Z,17.20
2022-11-14T20:59:39.869Z,16.63
2022-11-14T21:02:07.300Z,18.10
2022-11-14T21:04:34.819Z,21.27
2022-11-14T21:07:02.528Z,16.47
2022-11-14T21:09:29.874Z,13.37
2022-11-14T21:11:58.339Z,12.60
2022-11-14T21:19:32.347Z,13.43
2022-11-14T21:22:00.227Z,14.37
2022-11-14T21:24:28.247Z,16.83
2022-11-14T21:26:55.178Z,17.30
2022-11-14T21:29:22.849Z,12.40
2022-11-14T21:31:50.530Z,16.57
2022-11-14T21:34:18.221Z,12.83
2022-11-14T21:36:47.950Z,12.80
2022-11-14T21:39:17.614Z,15.73
2022-11-14T21:46:55.831Z,12.37
2022-11-14T21:49:27.726Z,11.17
2022-11-14T21:51:55.880Z,10.77
2022-11-14T21:54:24.638Z,13.33
2022-11-14T21:56:51.959Z,20.90
2022-11-14T21:59:21.252Z,14.63
2022-11-14T22:02:08.232Z,9.83
2022-11-14T22:04:37.983Z,11.87
2022-11-14T22:12:10.900Z,7.63
2022-11-14T22:14:38.141Z,13.10
2022-11-14T22:17:05.379Z,11.17
2022-11-14T22:19:33.316Z,7.23
2022-11-14T22:22:00.620Z,9.43
2022-11-14T22:24:33.097Z,9.63
2022-11-14T22:27:00.419Z,9.07
2022-11-14T22:34:28.077Z,8.50
2022-11-14T22:36:55.361Z,14.03
2022-11-14T22:39:22.722Z,13.33
2022-11-14T22:41:50.542Z,8.80
2022-11-14T22:44:18.158Z,11.47
2022-11-14T22:46:45.586Z,9.77
2022-11-14T22:49:20.644Z,6.03
2022-11-14T22:56:11.552Z,8.67
2022-11-14T22:58:40.497Z,7.90
2022-11-14T23:01:13.438Z,7.87
2022-11-14T23:03:54.515Z,10.53
2022-11-14T23:06:24.256Z,6.90
2022-11-14T23:08:52.465Z,9.33
2022-11-14T23:11:25.671Z,7.23
2022-11-14T23:13:55.179Z,8.90
2022-11-14T23:21:28.079Z,8.43
2022-11-14T23:23:56.289Z,8.93
2022-11-14T23:26:24.589Z,14.67
2022-11-14T23:28:52.497Z,12.10
2022-11-14T23:31:22.908Z,6.30
2022-11-14T23:33:52.016Z,10.43
2022-11-14T23:36:19.536Z,9.17
2022-11-14T23:43:24.257Z,8.30
2022-11-14T23:45:51.616Z,9.63
2022-11-14T23:48:20.206Z,7.80
2022-11-14T23:50:50.807Z,11.07
2022-11-14T23:53:19.110Z,9.70
2022-11-14T23:55:52.380Z,8.00
2022-11-14T23:58:19.797Z,7.20
